الصفحة الرئيسية
METAR-TAF:

METAR-TAF

مطار :

Esperance, أستراليا

دائرة عرض: 33-41-04S, خط طول: 121-49-22E, ارتفاع: 143 متر

مراقبة الطقس الحالي

تاريخ ووقت الإصدار 54 دقيقة قبل الساعة 03:00UTC
ريح 14 عقدة من الشمال/الشمال الغربي
درجة الحرارة 14°درجة مئوية
الرطوبة 67%
ضغط 1025 hPa
الرؤية 10 كم أو أكثر

METAR: YESP 190300Z AUTO 34014KT 9999 // NCD 14/08 Q1025

زمن: 11:54 (03:54 UTC)


TAF: مفقودة

أرصاد الطقس والتوقعات من أكثر من 4000 مطار (تقارير الطقس للمطار METAR والتنبؤ بالطقس بالمطارTAF).

المحطات المتاحة هي النقط الصفراء والحمراء على الخريطة.

حرك المؤشر فوق النقطة لمعرفة اسم المحطة.

ثم انقر لمعرفة أرصاد وتوقعات الطقس.

لتغيير الخارطة: اضغط على الأزرار الخضراء مع رمز الصليب الأسود للتكبير. على الزر الأخضر مع شرطة للتصغير، أو على الأسهم الخضراء للخرائط المجاورة.


METAR-TAF: